Ayersville, North Carolina
Current Conditions -  °F | °C
As of 4:55 AM on Sunday 23 Nov 2014 (Local Time) from KSIF Reporting Station
Broken Clouds Broken Clouds  
Wind Chill:   Ceiling: 5000
Heat Index:   Visibility: 10mi
Dew Point: -2°   Wind: 0mph
Humidity: 83%   Direction: NA
Pressure: 30.27"   Gusts: NA
Location:  36.4479°N, 79.9473°W
Report Text: KSIF 230955Z AUTO 00000KT 10SM BKN050 01/M02 A3027 RMK AO2 T00061020
Loading
Personal Weather Stations






























Interactive Weather Map New forecast layout! Learn more

10-Day Weather Forecast

Advertisements
Track Severe Weather on mobile